Time;durP1;ratioP1;P1;durP2;ratioP2;P2;SDS_P1;SDS_P2;PMS_P1;PMS_P2;Temp;Humidity;BMP_temperature;BMP_pressure;BME280_temperature;BME280_humidity;BME280_pressure;Samples;Min_cycle;Max_cycle;Signal;HPM_P1;HPM_P2
2022/01/05 00:00:40;;;;;;;9.83;3.00;;;;;;;2.22;93.47;99634.34;5041654;28;20194;-72
2022/01/05 00:03:05;;;;;;;12.13;2.93;;;;;;;2.20;93.68;99640.16;5051998;28;20197;-72
2022/01/05 00:05:31;;;;;;;10.87;3.43;;;;;;;2.17;94.26;99630.81;5050879;28;20198;-72
2022/01/05 00:07:57;;;;;;;10.17;3.17;;;;;;;2.24;93.31;99622.59;5051513;28;20197;-72
2022/01/05 00:10:22;;;;;;;8.87;2.83;;;;;;;2.28;94.03;99631.13;5051786;28;20213;-72
2022/01/05 00:12:48;;;;;;;11.50;2.93;;;;;;;2.16;93.66;99618.97;5050629;28;20274;-72
2022/01/05 00:15:13;;;;;;;6.60;2.57;;;;;;;2.20;93.72;99619.94;5051593;28;20314;-72
2022/01/05 00:17:38;;;;;;;12.13;3.07;;;;;;;2.17;93.05;99612.25;5042584;28;20198;-72
2022/01/05 00:20:05;;;;;;;11.57;3.37;;;;;;;2.14;93.68;99607.97;5031559;28;20190;-72
2022/01/05 00:22:30;;;;;;;12.43;3.13;;;;;;;2.11;93.89;99614.59;5031583;28;20190;-72
2022/01/05 00:24:55;;;;;;;13.40;2.97;;;;;;;2.07;94.21;99615.31;5046764;28;20187;-72
2022/01/05 00:27:21;;;;;;;10.33;2.83;;;;;;;2.03;94.45;99613.47;5031758;28;20643;-72
2022/01/05 00:29:47;;;;;;;15.27;2.77;;;;;;;2.02;93.68;99615.13;5031424;28;20655;-72
2022/01/05 00:32:12;;;;;;;12.40;3.03;;;;;;;2.04;94.47;99615.19;5043888;28;20202;-72
2022/01/05 00:34:38;;;;;;;11.37;3.07;;;;;;;2.06;93.75;99613.59;5047632;28;20635;-72
2022/01/05 00:37:04;;;;;;;10.03;2.93;;;;;;;2.04;94.31;99600.91;5050332;28;20678;-72
2022/01/05 00:39:29;;;;;;;8.93;3.00;;;;;;;2.04;93.86;99600.91;5050684;28;20251;-72
2022/01/05 00:41:54;;;;;;;8.40;2.83;;;;;;;2.10;94.19;99597.72;5048054;28;20288;-72
2022/01/05 00:44:20;;;;;;;9.83;3.13;;;;;;;2.05;94.01;99591.66;5049300;28;20220;-72
2022/01/05 00:46:46;;;;;;;21.70;4.30;;;;;;;2.08;93.66;99595.16;5049707;28;20251;-72
2022/01/05 00:49:12;;;;;;;8.17;3.10;;;;;;;2.10;93.28;99595.19;5048514;28;20197;-72
2022/01/05 00:51:38;;;;;;;14.57;2.97;;;;;;;2.06;93.75;99581.63;5045961;28;20198;-72
2022/01/05 00:54:05;;;;;;;9.23;2.33;;;;;;;2.02;93.78;99586.53;5049130;28;20238;-72
2022/01/05 00:56:30;;;;;;;12.30;3.00;;;;;;;2.06;93.81;99586.66;5046756;28;20294;-72
2022/01/05 00:58:56;;;;;;;8.20;3.13;;;;;;;2.07;94.28;99592.59;5046949;28;20658;-72
2022/01/05 01:01:21;;;;;;;9.40;3.07;;;;;;;2.02;93.86;99582.31;5047946;28;20196;-72
2022/01/05 01:03:47;;;;;;;12.70;3.43;;;;;;;2.01;93.84;99579.75;5050747;28;20251;-72
2022/01/05 01:06:12;;;;;;;10.33;2.70;;;;;;;1.95;94.56;99584.59;5047776;28;20205;-72
2022/01/05 01:08:37;;;;;;;10.57;2.70;;;;;;;1.97;94.46;99590.59;5049663;28;20194;-72
2022/01/05 01:11:03;;;;;;;10.47;3.23;;;;;;;1.92;94.46;99587.88;5048585;28;20178;-72
2022/01/05 01:13:28;;;;;;;14.83;3.13;;;;;;;1.98;94.60;99582.19;5049760;28;20705;-72
2022/01/05 01:15:53;;;;;;;12.43;4.00;;;;;;;1.93;93.87;99587.06;5049658;28;20220;-72
2022/01/05 01:18:21;;;;;;;14.37;3.27;;;;;;;1.93;93.94;99587.06;5049299;28;20193;-72
2022/01/05 01:20:49;;;;;;;14.97;3.03;;;;;;;1.95;94.75;99593.06;5048603;28;20197;-72
2022/01/05 01:23:18;;;;;;;8.90;2.57;;;;;;;1.93;93.73;99589.59;5049895;28;20209;-72
2022/01/05 01:25:44;;;;;;;9.07;3.23;;;;;;;1.92;94.53;99592.94;5047307;28;20847;-72
2022/01/05 01:28:09;;;;;;;9.00;3.03;;;;;;;1.96;94.46;99589.72;5047633;28;20232;-72
2022/01/05 01:30:35;;;;;;;11.67;2.93;;;;;;;1.94;94.35;99586.28;5048934;28;20201;-72
2022/01/05 01:33:00;;;;;;;10.60;2.90;;;;;;;1.95;93.67;99590.53;5044721;28;20194;-72
2022/01/05 01:35:26;;;;;;;14.20;3.00;;;;;;;1.96;93.69;99589.72;5046396;28;20216;-72
2022/01/05 01:37:53;;;;;;;14.47;3.17;;;;;;;1.97;93.92;99576.28;5044786;28;20284;-72
2022/01/05 01:40:19;;;;;;;14.17;2.80;;;;;;;1.92;94.21;99592.09;5048278;28;20192;-72
2022/01/05 01:42:45;;;;;;;12.27;3.13;;;;;;;1.95;94.42;99585.47;5046170;28;20209;-72
2022/01/05 01:45:10;;;;;;;9.77;2.80;;;;;;;2.03;94.59;99575.63;5049859;28;20213;-72
2022/01/05 01:47:35;;;;;;;10.00;2.90;;;;;;;2.00;94.00;99573.88;5040662;28;20186;-72
2022/01/05 01:50:01;;;;;;;14.67;3.27;;;;;;;2.03;94.70;99580.69;5048503;28;20189;-72
2022/01/05 01:52:26;;;;;;;10.23;3.40;;;;;;;2.04;94.40;99577.34;5047275;28;20255;-72
2022/01/05 01:54:52;;;;;;;13.03;3.50;;;;;;;2.00;93.47;99580.56;5044936;28;20639;-72
2022/01/05 01:57:20;;;;;;;10.73;3.20;;;;;;;2.02;93.72;99574.75;5042981;28;20701;-72
2022/01/05 01:59:46;;;;;;;11.67;3.33;;;;;;;2.01;93.56;99587.31;5048367;28;20190;-72
2022/01/05 02:02:12;;;;;;;13.17;3.70;;;;;;;2.06;94.44;99578.25;5046605;28;20650;-72
2022/01/05 02:04:39;;;;;;;9.93;3.10;;;;;;;2.07;93.31;99577.44;5048578;28;20173;-72
2022/01/05 02:07:04;;;;;;;16.33;3.57;;;;;;;2.00;94.17;99585.63;5045876;28;20690;-72
2022/01/05 02:09:29;;;;;;;13.40;3.40;;;;;;;2.00;94.57;99575.50;5049503;28;20273;-72
2022/01/05 02:11:55;;;;;;;12.40;3.10;;;;;;;2.05;94.10;99576.53;5048212;28;20322;-72
2022/01/05 02:14:20;;;;;;;12.83;3.47;;;;;;;2.03;93.92;99571.44;5049798;28;20269;-72
2022/01/05 02:16:46;;;;;;;18.50;3.50;;;;;;;2.04;94.33;99558.00;5048545;28;20205;-72
2022/01/05 02:19:12;;;;;;;13.93;3.77;;;;;;;2.05;93.46;99561.38;5044237;28;20735;-72
2022/01/05 02:21:38;;;;;;;10.17;3.13;;;;;;;2.05;93.74;99569.81;5047326;28;20331;-72
2022/01/05 02:24:06;;;;;;;15.07;3.70;;;;;;;2.04;94.08;99578.22;5049359;28;20192;-72
2022/01/05 02:26:32;;;;;;;13.53;3.13;;;;;;;2.09;93.82;99565.72;5044607;28;20245;-72
2022/01/05 02:28:58;;;;;;;13.23;3.80;;;;;;;2.04;93.00;99572.28;5047924;28;20186;-72
2022/01/05 02:31:23;;;;;;;11.97;3.03;;;;;;;2.09;93.58;99569.13;5046297;28;20182;-72
2022/01/05 02:33:49;;;;;;;10.87;2.97;;;;;;;2.05;93.48;99571.47;5043516;28;20667;-72
2022/01/05 02:36:18;;;;;;;17.07;2.70;;;;;;;2.05;93.54;99577.38;5042429;28;20683;-72
2022/01/05 02:38:44;;;;;;;15.93;2.90;;;;;;;2.00;93.18;99578.91;5048746;28;20188;-72
2022/01/05 02:41:10;;;;;;;11.60;3.00;;;;;;;1.94;92.57;99576.19;5046670;28;20187;-72
2022/01/05 02:43:37;;;;;;;11.20;2.53;;;;;;;1.93;92.70;99582.03;5048102;28;20252;-72
2022/01/05 02:46:04;;;;;;;9.63;3.17;;;;;;;1.97;93.07;99570.38;5047508;28;20214;-72
2022/01/05 02:48:30;;;;;;;13.13;2.97;;;;;;;2.01;92.66;99575.56;5046801;28;20690;-72
2022/01/05 02:50:57;;;;;;;12.13;3.20;;;;;;;1.98;92.46;99567.91;5045089;28;20218;-72
2022/01/05 02:53:23;;;;;;;9.40;2.27;;;;;;;1.94;93.09;99566.09;5046007;28;20567;-72
2022/01/05 02:55:48;;;;;;;12.23;2.73;;;;;;;1.92;93.07;99566.88;5047812;28;20258;-72
2022/01/05 02:58:13;;;;;;;10.73;2.87;;;;;;;1.88;92.96;99573.47;5044854;28;20193;-72
2022/01/05 03:00:39;;;;;;;13.27;2.40;;;;;;;1.92;93.32;99577.78;5048126;28;20233;-72
2022/01/05 03:03:04;;;;;;;10.07;2.67;;;;;;;1.96;93.15;99567.00;5048975;28;20193;-72
2022/01/05 03:05:29;;;;;;;10.60;2.50;;;;;;;1.92;92.68;99569.38;5050970;28;20218;-72
2022/01/05 03:07:55;;;;;;;10.20;2.20;;;;;;;1.90;92.55;99569.34;5048664;28;20190;-72
2022/01/05 03:10:20;;;;;;;9.70;2.43;;;;;;;1.87;92.55;99559.13;5051550;28;20252;-72
2022/01/05 03:12:46;;;;;;;10.57;2.10;;;;;;;1.91;93.00;99560.06;5052678;28;20186;-72
2022/01/05 03:15:11;;;;;;;13.80;2.07;;;;;;;1.89;92.80;99557.50;5053007;28;20281;-72
2022/01/05 03:17:37;;;;;;;11.07;2.40;;;;;;;1.90;92.25;99554.19;5051947;28;20587;-72
2022/01/05 03:20:03;;;;;;;11.23;2.40;;;;;;;1.87;92.76;99554.09;5052397;28;20270;-72
2022/01/05 03:22:28;;;;;;;10.60;2.20;;;;;;;1.90;92.09;99549.16;5047759;28;20224;-72
2022/01/05 03:24:54;;;;;;;9.43;1.77;;;;;;;1.97;92.35;99550.22;5045784;28;20224;-72
2022/01/05 03:27:19;;;;;;;10.53;1.80;;;;;;;1.89;92.15;99544.88;5046049;28;20190;-72
2022/01/05 03:29:45;;;;;;;9.90;2.67;;;;;;;1.86;91.46;99541.41;5051447;28;20201;-72
2022/01/05 03:32:10;;;;;;;15.03;2.77;;;;;;;1.89;92.36;99546.56;5048379;28;20181;-72
2022/01/05 03:34:37;;;;;;;14.53;2.73;;;;;;;1.87;92.29;99540.59;5046258;28;20193;-72
2022/01/05 03:37:03;;;;;;;9.97;2.07;;;;;;;1.88;91.57;99543.19;5048364;28;20694;-72
2022/01/05 03:39:28;;;;;;;8.67;1.87;;;;;;;1.85;91.30;99543.09;5052161;28;20200;-72
2022/01/05 03:41:54;;;;;;;11.27;2.07;;;;;;;1.87;91.50;99538.06;5047942;28;20186;-72
2022/01/05 03:44:19;;;;;;;10.27;2.60;;;;;;;1.87;91.53;99536.41;5052116;28;20209;-72
2022/01/05 03:46:44;;;;;;;10.07;1.90;;;;;;;1.88;91.06;99538.13;5046592;28;20221;-72
2022/01/05 03:49:09;;;;;;;12.40;1.80;;;;;;;1.89;91.58;99537.31;5055141;28;20197;-72
2022/01/05 03:51:35;;;;;;;10.77;2.40;;;;;;;1.88;91.65;99535.59;5050492;28;20209;-72
2022/01/05 03:54:00;;;;;;;13.27;2.07;;;;;;;1.90;90.67;99538.19;5045201;28;20182;-72
2022/01/05 03:56:26;;;;;;;10.57;2.30;;;;;;;1.91;91.70;99530.66;5049311;28;20214;-72
2022/01/05 03:58:51;;;;;;;9.13;1.80;;;;;;;1.85;90.74;99538.06;5051664;28;20194;-72
2022/01/05 04:01:16;;;;;;;9.13;2.30;;;;;;;1.84;91.38;99538.84;5049704;28;20205;-72
2022/01/05 04:03:42;;;;;;;9.50;1.90;;;;;;;1.95;91.81;99540.06;5048073;28;20220;-72
2022/01/05 04:06:07;;;;;;;11.17;2.27;;;;;;;1.93;91.13;99541.66;5050089;28;20570;-72
2022/01/05 04:08:33;;;;;;;14.67;3.73;;;;;;;1.92;91.61;99547.50;5048898;28;20190;-72
2022/01/05 04:10:58;;;;;;;11.70;2.63;;;;;;;1.98;91.42;99544.34;5049066;28;20233;-72
2022/01/05 04:13:24;;;;;;;12.87;2.00;;;;;;;1.94;91.02;99548.44;5049327;28;20207;-72
2022/01/05 04:15:49;;;;;;;13.47;2.23;;;;;;;2.02;91.06;99544.47;5050910;28;20312;-72
2022/01/05 04:18:14;;;;;;;13.60;2.47;;;;;;;1.99;90.65;99549.44;5047020;28;20245;-72
2022/01/05 04:20:40;;;;;;;21.10;2.63;;;;;;;2.02;90.88;99536.91;5050192;28;20236;-72
2022/01/05 04:23:05;;;;;;;8.47;1.90;;;;;;;2.09;90.13;99531.25;5049176;28;20221;-72
2022/01/05 04:25:32;;;;;;;14.63;2.37;;;;;;;2.04;90.16;99536.94;5049323;28;20616;-72
2022/01/05 04:27:58;;;;;;;8.67;2.63;;;;;;;2.04;89.81;99542.00;5049597;28;20744;-72
2022/01/05 04:30:24;;;;;;;9.83;2.30;;;;;;;2.04;90.34;99547.91;5048329;28;20199;-72
2022/01/05 04:32:49;;;;;;;11.07;2.30;;;;;;;2.03;89.93;99546.22;5049291;28;20193;-72
2022/01/05 04:35:14;;;;;;;8.77;1.87;;;;;;;2.13;89.69;99548.22;5046228;28;20558;-72
2022/01/05 04:37:41;;;;;;;10.40;1.77;;;;;;;2.11;90.03;99542.25;5049163;28;20716;-72
2022/01/05 04:40:07;;;;;;;10.60;1.90;;;;;;;2.13;89.32;99534.72;5045506;28;20709;-72
2022/01/05 04:42:33;;;;;;;9.13;2.47;;;;;;;2.09;88.97;99541.34;5048862;28;20190;-72
2022/01/05 04:44:58;;;;;;;12.53;2.23;;;;;;;2.15;89.61;99545.75;5051245;28;20542;-72
2022/01/05 04:47:24;;;;;;;12.70;1.87;;;;;;;2.16;90.24;99539.88;5047861;28;20198;-72
2022/01/05 04:49:49;;;;;;;11.00;2.23;;;;;;;2.19;89.04;99545.00;5050793;28;20190;-72
2022/01/05 04:52:15;;;;;;;8.47;1.80;;;;;;;2.24;89.61;99541.81;5049270;28;20198;-72
2022/01/05 04:54:40;;;;;;;8.90;2.13;;;;;;;2.25;88.96;99555.31;5042200;28;20194;-72
2022/01/05 04:57:06;;;;;;;8.30;2.13;;;;;;;2.38;88.79;99539.69;5040598;28;20695;-72
2022/01/05 04:59:32;;;;;;;10.73;1.90;;;;;;;2.39;87.79;99533.84;5047454;28;20214;-72
2022/01/05 05:01:58;;;;;;;10.93;1.60;;;;;;;2.36;88.81;99528.72;5040194;28;20202;-72
2022/01/05 05:04:23;;;;;;;8.43;1.90;;;;;;;2.39;88.86;99531.34;5029606;28;20201;-72
2022/01/05 05:06:49;;;;;;;10.63;1.80;;;;;;;2.38;88.07;99535.50;5043190;28;20218;-72
2022/01/05 05:09:15;;;;;;;16.77;2.47;;;;;;;2.36;88.85;99524.53;5050409;28;20190;-72
2022/01/05 05:11:40;;;;;;;13.70;2.30;;;;;;;2.37;88.25;99528.75;5046187;28;20178;-72
2022/01/05 05:14:06;;;;;;;10.20;2.00;;;;;;;2.38;88.72;99516.97;5050419;28;20224;-72
2022/01/05 05:16:31;;;;;;;13.20;2.00;;;;;;;2.41;88.13;99522.13;5046029;28;20713;-72
2022/01/05 05:18:57;;;;;;;9.33;2.20;;;;;;;2.46;87.27;99516.41;5050077;28;20639;-72
2022/01/05 05:21:22;;;;;;;12.43;2.10;;;;;;;2.48;87.44;99524.88;5049381;28;20722;-72
2022/01/05 05:23:47;;;;;;;8.87;2.10;;;;;;;2.47;86.93;99525.69;5046075;28;20734;-72
2022/01/05 05:26:13;;;;;;;10.63;2.13;;;;;;;2.51;87.11;99536.72;5047329;28;20213;-72
2022/01/05 05:28:38;;;;;;;6.93;1.80;;;;;;;2.51;87.38;99537.59;5047917;28;20622;-72
2022/01/05 05:31:03;;;;;;;9.10;2.73;;;;;;;2.52;87.91;99530.91;5049108;28;20194;-72
2022/01/05 05:33:29;;;;;;;6.77;1.90;;;;;;;2.54;87.97;99532.66;5047933;28;20201;-72
2022/01/05 05:35:54;;;;;;;6.83;1.80;;;;;;;2.61;87.03;99534.53;5048087;28;20255;-72
2022/01/05 05:38:19;;;;;;;12.23;2.40;;;;;;;2.57;87.30;99526.84;5045150;28;20297;-72
2022/01/05 05:40:45;;;;;;;8.30;2.00;;;;;;;2.56;88.41;99527.63;5043410;28;20220;-72
2022/01/05 05:43:10;;;;;;;13.50;2.73;;;;;;;2.57;87.71;99525.13;5047793;28;20217;-72
2022/01/05 05:45:36;;;;;;;9.10;1.97;;;;;;;2.57;87.22;99527.66;5049948;28;20213;-72
2022/01/05 05:48:01;;;;;;;11.67;2.60;;;;;;;2.59;88.04;99540.34;5043590;28;20197;-72
2022/01/05 05:50:27;;;;;;;13.00;2.43;;;;;;;2.57;87.90;99522.63;5049854;28;20197;-72
2022/01/05 05:52:52;;;;;;;12.87;2.97;;;;;;;2.55;88.67;99525.91;5048843;28;20188;-72
2022/01/05 05:55:17;;;;;;;12.53;2.57;;;;;;;2.55;88.37;99525.91;5046389;28;20773;-72
2022/01/05 05:57:43;;;;;;;9.03;2.00;;;;;;;2.55;88.84;99530.97;5052737;28;20221;-72
2022/01/05 06:00:10;;;;;;;7.90;2.13;;;;;;;2.55;89.65;99536.88;5043275;28;20193;-72
2022/01/05 06:02:35;;;;;;;9.13;2.37;;;;;;;2.53;89.38;99546.06;5051055;28;20683;-72
2022/01/05 06:05:00;;;;;;;10.23;2.10;;;;;;;2.55;89.17;99544.47;5047793;28;20194;-72
2022/01/05 06:07:25;;;;;;;13.13;2.60;;;;;;;2.56;90.00;99541.13;5046481;28;20193;-72
2022/01/05 06:09:51;;;;;;;13.37;2.63;;;;;;;2.58;88.74;99531.91;5048223;28;20196;-72
2022/01/05 06:12:16;;;;;;;6.70;1.60;;;;;;;2.65;88.92;99538.88;5045644;28;20190;-72
2022/01/05 06:14:42;;;;;;;7.40;2.47;;;;;;;2.64;88.52;99537.16;5048148;28;20170;-72
2022/01/05 06:17:07;;;;;;;9.00;2.37;;;;;;;2.66;88.00;99530.47;5052277;28;20220;-72
2022/01/05 06:19:32;;;;;;;10.93;2.33;;;;;;;2.61;89.23;99526.06;5049206;28;20663;-72
2022/01/05 06:21:58;;;;;;;13.50;2.63;;;;;;;2.64;88.23;99539.69;5041690;28;20190;-72
2022/01/05 06:24:24;;;;;;;14.30;2.37;;;;;;;2.61;88.42;99538.72;5042849;28;20193;-72
2022/01/05 06:26:51;;;;;;;12.03;2.67;;;;;;;2.72;87.73;99534.84;5049162;28;20270;-72
2022/01/05 06:29:17;;;;;;;14.10;2.40;;;;;;;2.70;88.74;99538.97;5049194;28;20188;-72
2022/01/05 06:31:42;;;;;;;9.30;2.43;;;;;;;2.71;88.08;99523.88;5039091;28;20186;-72
2022/01/05 06:34:07;;;;;;;8.73;2.60;;;;;;;2.69;88.80;99543.19;5029498;28;20674;-72
2022/01/05 06:36:33;;;;;;;12.57;2.53;;;;;;;2.63;89.12;99535.44;5028106;28;20229;-72
2022/01/05 06:38:58;;;;;;;16.83;2.67;;;;;;;2.58;89.57;99526.84;5029020;28;20194;-72
2022/01/05 06:41:23;;;;;;;13.20;2.63;;;;;;;2.53;89.41;99527.56;5030490;28;20206;-72
2022/01/05 06:43:49;;;;;;;10.13;2.40;;;;;;;2.59;89.52;99538.69;5049141;28;20296;-72
2022/01/05 06:46:14;;;;;;;15.80;2.97;;;;;;;2.67;88.53;99536.38;5049177;28;20335;-72
2022/01/05 06:48:39;;;;;;;11.67;2.70;;;;;;;2.67;88.76;99529.63;5039365;28;20190;-72
2022/01/05 06:51:05;;;;;;;11.20;2.57;;;;;;;2.71;88.33;99538.19;5028015;28;20186;-71
2022/01/05 06:53:30;;;;;;;9.83;2.53;;;;;;;2.65;89.06;99538.88;5028105;28;20186;-71
2022/01/05 06:55:56;;;;;;;9.73;2.70;;;;;;;2.61;88.74;99531.13;5029150;28;20308;-71
2022/01/05 06:58:21;;;;;;;8.43;2.27;;;;;;;2.57;88.96;99555.44;5029014;28;20271;-72
2022/01/05 07:00:46;;;;;;;12.90;2.60;;;;;;;2.61;88.95;99534.53;5029247;28;20217;-72
2022/01/05 07:03:12;;;;;;;10.90;2.50;;;;;;;2.59;89.14;99548.78;5029261;28;20185;-72
2022/01/05 07:05:38;;;;;;;12.00;2.20;;;;;;;2.61;88.57;99539.56;5029745;28;20696;-72
2022/01/05 07:08:05;;;;;;;11.80;2.60;;;;;;;2.63;88.84;99537.09;5029109;28;20198;-72
2022/01/05 07:10:31;;;;;;;11.67;2.43;;;;;;;2.62;87.89;99533.72;5029374;28;20225;-72
2022/01/05 07:12:56;;;;;;;10.13;2.17;;;;;;;2.66;87.43;99543.09;5029280;28;20659;-72
2022/01/05 07:15:22;;;;;;;10.77;2.97;;;;;;;2.71;87.74;99556.72;5029394;28;20240;-72
2022/01/05 07:17:47;;;;;;;13.80;2.83;;;;;;;2.72;88.05;99557.59;5044401;28;20576;-72
2022/01/05 07:20:13;;;;;;;10.23;2.47;;;;;;;2.72;87.88;99555.06;5044493;28;20638;-72
2022/01/05 07:22:39;;;;;;;10.20;2.63;;;;;;;2.81;86.98;99548.59;5047605;28;20193;-72
2022/01/05 07:25:07;;;;;;;12.70;2.57;;;;;;;2.82;86.85;99551.97;5049156;28;20194;-72
2022/01/05 07:27:32;;;;;;;10.77;2.20;;;;;;;2.92;85.79;99547.22;5049200;28;20209;-72
2022/01/05 07:29:57;;;;;;;11.80;2.43;;;;;;;2.87;86.34;99545.38;5048856;28;20216;-72
2022/01/05 07:32:23;;;;;;;11.47;2.53;;;;;;;2.86;86.94;99549.59;5049164;28;20186;-72
2022/01/05 07:34:48;;;;;;;11.37;2.40;;;;;;;2.89;86.49;99551.34;5047775;28;20673;-72
2022/01/05 07:37:13;;;;;;;10.60;2.80;;;;;;;2.91;85.99;99549.72;5048773;28;20222;-72
2022/01/05 07:39:39;;;;;;;13.63;2.80;;;;;;;2.90;85.62;99543.78;5047821;28;20849;-72
2022/01/05 07:42:06;;;;;;;17.77;2.73;;;;;;;2.98;85.51;99546.53;5048798;28;20640;-72
2022/01/05 07:44:31;;;;;;;13.33;2.10;;;;;;;2.95;85.76;99556.56;5048638;28;20196;-71
2022/01/05 07:46:56;;;;;;;13.37;2.70;;;;;;;2.91;85.38;99552.25;5048706;28;20553;-71
2022/01/05 07:49:22;;;;;;;15.20;2.70;;;;;;;2.97;85.65;99549.88;5049022;28;20324;-72
2022/01/05 07:51:47;;;;;;;12.17;3.07;;;;;;;2.99;85.53;99549.09;5052302;28;20174;-72
2022/01/05 07:54:13;;;;;;;12.10;2.87;;;;;;;3.08;85.79;99558.63;5052160;28;20263;-72
2022/01/05 07:56:38;;;;;;;14.83;2.97;;;;;;;3.06;85.94;99560.25;5051168;28;20217;-72
2022/01/05 07:59:04;;;;;;;11.93;2.70;;;;;;;3.09;85.13;99561.19;5051910;28;20189;-72
2022/01/05 08:01:29;;;;;;;10.83;2.40;;;;;;;3.13;85.20;99570.56;5052130;28;20190;-72
2022/01/05 08:03:55;;;;;;;10.20;2.70;;;;;;;3.16;85.66;99559.69;5051130;28;20190;-72
2022/01/05 08:06:21;;;;;;;10.67;3.00;;;;;;;3.19;84.80;99553.06;5052034;28;20212;-72
2022/01/05 08:08:47;;;;;;;14.97;2.20;;;;;;;3.17;85.82;99561.41;5050732;28;20227;-72
2022/01/05 08:11:13;;;;;;;11.87;2.60;;;;;;;3.15;85.88;99557.97;5039159;28;20261;-72
2022/01/05 08:13:39;;;;;;;13.83;3.00;;;;;;;3.16;84.99;99554.63;5035922;28;20648;-73
2022/01/05 08:16:04;;;;;;;10.17;2.37;;;;;;;3.20;84.57;99549.72;5031754;28;20275;-71
2022/01/05 08:18:30;;;;;;;10.10;2.70;;;;;;;3.19;84.27;99553.06;5031723;28;20547;-72
2022/01/05 08:20:55;;;;;;;5.93;2.17;;;;;;;3.17;85.04;99543.72;5031899;28;20655;-71
2022/01/05 08:23:22;;;;;;;14.33;3.03;;;;;;;3.19;85.03;99555.59;5031814;28;20185;-72
2022/01/05 08:25:49;;;;;;;11.23;2.23;;;;;;;3.27;84.21;99548.22;5031604;28;20210;-71
2022/01/05 08:28:16;;;;;;;14.73;2.93;;;;;;;3.28;84.00;99549.91;5032760;28;20248;-71
2022/01/05 08:30:44;;;;;;;12.67;2.37;;;;;;;3.36;83.77;99549.28;5030470;28;20216;-72
2022/01/05 08:33:10;;;;;;;11.53;2.60;;;;;;;3.33;84.17;99550.88;5047032;28;20202;-71
2022/01/05 08:35:35;;;;;;;12.10;2.77;;;;;;;3.26;85.55;99552.41;5051363;28;20737;-72
2022/01/05 08:38:02;;;;;;;10.07;2.67;;;;;;;3.23;86.15;99554.00;5049950;28;20189;-73
2022/01/05 08:40:27;;;;;;;11.43;2.23;;;;;;;3.27;86.36;99554.09;5051493;28;20181;-73
2022/01/05 08:42:55;;;;;;;11.60;2.53;;;;;;;3.26;86.35;99557.44;5051349;28;20186;-73
2022/01/05 08:45:21;;;;;;;16.37;2.83;;;;;;;3.29;85.91;99555.03;5051434;28;20206;-72
2022/01/05 08:47:49;;;;;;;10.40;2.40;;;;;;;3.30;86.65;99555.84;5040776;28;20834;-72
2022/01/05 08:50:20;;;;;;;15.67;2.67;;;;;;;3.30;86.38;99563.44;5041637;28;20692;-73
2022/01/05 08:52:45;;;;;;;15.37;2.73;;;;;;;3.29;86.64;99569.31;5051193;28;20676;-72
2022/01/05 08:55:11;;;;;;;16.63;2.73;;;;;;;3.29;87.26;99576.91;5050183;28;20289;-72
2022/01/05 08:57:37;;;;;;;10.93;3.03;;;;;;;3.31;86.98;99578.66;5049493;28;20213;-72
2022/01/05 09:00:05;;;;;;;11.83;2.60;;;;;;;3.31;87.63;99562.66;5049444;28;20186;-72
2022/01/05 09:02:30;;;;;;;17.70;3.50;;;;;;;3.37;87.83;99578.84;5051015;28;20307;-72
2022/01/05 09:04:56;;;;;;;11.90;3.10;;;;;;;3.54;88.28;99575.06;5048526;28;20268;-76
2022/01/05 09:07:21;;;;;;;12.73;2.50;;;;;;;3.65;88.11;99580.41;5010800;28;20210;-78
2022/01/05 09:09:46;;;;;;;9.83;2.70;;;;;;;3.37;89.50;99585.56;5044732;28;20312;-72
2022/01/05 09:12:12;;;;;;;9.30;2.60;;;;;;;3.33;89.56;99586.28;5049548;28;20188;-72
2022/01/05 09:14:39;;;;;;;14.60;3.00;;;;;;;3.35;89.39;99592.28;5048570;28;20182;-72
2022/01/05 09:17:05;;;;;;;9.67;2.83;;;;;;;3.31;89.20;99588.78;5049838;28;20318;-72
2022/01/05 09:19:31;;;;;;;14.03;2.80;;;;;;;3.32;88.95;99582.06;5049579;28;20706;-72
2022/01/05 09:21:56;;;;;;;12.00;3.27;;;;;;;3.32;89.54;99593.00;5036727;28;20198;-72
2022/01/05 09:24:22;;;;;;;9.53;2.73;;;;;;;3.29;88.33;99590.44;5045077;28;20189;-72
2022/01/05 09:26:47;;;;;;;10.07;2.73;;;;;;;3.31;88.85;99583.72;5049533;28;20202;-72
2022/01/05 09:29:13;;;;;;;14.03;3.30;;;;;;;3.31;88.55;99587.94;5049613;28;20549;-72
2022/01/05 09:31:38;;;;;;;9.60;3.00;;;;;;;3.27;89.34;99593.72;5048375;28;20248;-72
2022/01/05 09:34:04;;;;;;;10.63;2.97;;;;;;;3.29;89.58;99582.84;5049627;28;20208;-72
2022/01/05 09:36:34;;;;;;;12.17;3.00;;;;;;;3.30;90.38;99594.66;5048283;28;20959;-72
2022/01/05 09:41:56;;;;;;;19.23;4.77;;;;;;;3.34;89.61;99588.00;5047573;28;20221;-72
2022/01/05 09:44:26;;;;;;;13.67;3.77;;;;;;;3.37;89.12;99594.03;5049775;28;20190;-72
2022/01/05 09:47:17;;;;;;;14.30;3.37;;;;;;;3.40;89.58;99595.78;5031610;28;20220;-72
2022/01/05 09:49:57;;;;;;;8.43;3.17;;;;;;;3.45;89.22;99589.16;5049132;28;20231;-71
2022/01/05 09:52:24;;;;;;;12.57;3.03;;;;;;;3.45;89.56;99592.53;5049518;28;20189;-71
2022/01/05 09:54:49;;;;;;;12.17;3.30;;;;;;;3.50;88.93;99596.03;5046349;28;20659;-72
2022/01/05 09:57:16;;;;;;;8.80;2.90;;;;;;;3.51;88.35;99584.25;5029233;28;20217;-71
2022/01/05 09:59:43;;;;;;;12.33;3.00;;;;;;;3.51;88.60;99587.66;5032451;28;20197;-72
2022/01/05 10:02:09;;;;;;;9.17;3.20;;;;;;;3.51;88.62;99585.13;5048561;28;20192;-72
2022/01/05 10:04:36;;;;;;;9.83;3.20;;;;;;;3.52;88.88;99584.31;5048628;28;20194;-72
2022/01/05 10:07:02;;;;;;;9.23;3.30;;;;;;;3.54;88.52;99580.13;5029981;28;20253;-72
2022/01/05 10:09:28;;;;;;;10.37;3.10;;;;;;;3.59;88.73;99585.34;5047511;28;20217;-72
2022/01/05 10:11:53;;;;;;;8.60;2.90;;;;;;;3.62;88.09;99577.81;5044965;28;20198;-72
2022/01/05 10:14:19;;;;;;;8.37;3.07;;;;;;;3.62;88.88;99578.66;5034257;28;20201;-72
2022/01/05 10:17:09;;;;;;;7.90;3.03;;;;;;;3.63;88.54;99587.13;5048816;28;20220;-72
2022/01/05 10:19:36;;;;;;;10.27;3.60;;;;;;;3.63;88.32;99579.53;5047412;28;20842;-72
2022/01/05 10:22:03;;;;;;;8.57;2.73;;;;;;;3.66;88.23;99583.00;5048873;28;20244;-72
2022/01/05 10:24:46;;;;;;;11.40;3.70;;;;;;;3.66;88.90;99577.94;5048658;28;20201;-72
2022/01/05 10:27:19;;;;;;;9.40;3.07;;;;;;;3.69;88.75;99570.41;5048550;28;20205;-72
2022/01/05 10:29:54;;;;;;;10.17;3.97;;;;;;;3.76;88.85;99564.69;5047501;28;20697;-72
2022/01/05 10:32:20;;;;;;;11.20;3.30;;;;;;;3.82;88.72;99561.47;5048767;28;20197;-73
2022/01/05 10:34:59;;;;;;;12.00;3.27;;;;;;;3.83;88.30;99563.19;5048746;28;20194;-73
2022/01/05 10:37:25;;;;;;;9.20;3.40;;;;;;;3.83;88.71;99555.59;5047248;28;20301;-73
2022/01/05 10:40:14;;;;;;;12.50;3.57;;;;;;;3.84;88.17;99558.16;5048445;28;20643;-73
2022/01/05 10:42:41;;;;;;;11.57;3.67;;;;;;;3.85;88.47;99561.53;5048709;28;20193;-73
2022/01/05 10:45:09;;;;;;;11.53;3.57;;;;;;;3.89;88.02;99559.13;5048619;28;20193;-72
2022/01/05 10:47:36;;;;;;;10.90;3.70;;;;;;;3.95;88.08;99559.25;5047751;28;20247;-72
2022/01/05 10:50:04;;;;;;;15.07;4.53;;;;;;;4.08;87.66;99566.34;5048256;28;20182;-72
2022/01/05 10:52:34;;;;;;;8.70;3.57;;;;;;;4.05;88.05;99565.44;5048557;28;21013;-72
2022/01/05 10:55:17;;;;;;;12.37;4.13;;;;;;;4.09;87.54;99567.22;5048521;28;20196;-72
2022/01/05 10:58:02;;;;;;;12.27;4.37;;;;;;;4.15;87.27;99568.19;5065756;28;20710;-72
2022/01/05 11:00:32;;;;;;;9.37;3.40;;;;;;;4.15;86.70;99567.34;5057966;28;20285;-72
2022/01/05 11:02:58;;;;;;;8.50;3.57;;;;;;;4.16;86.73;99569.94;5044849;28;20191;-72
2022/01/05 11:05:23;;;;;;;10.07;3.50;;;;;;;4.15;86.94;99558.06;5042462;28;20252;-72
2022/01/05 11:07:49;;;;;;;10.40;3.30;;;;;;;4.18;86.69;99562.38;5047286;28;20272;-72
2022/01/05 11:10:17;;;;;;;11.70;3.80;;;;;;;4.16;86.76;99554.72;5048328;28;20551;-72
2022/01/05 11:12:46;;;;;;;9.83;3.53;;;;;;;4.18;87.51;99562.38;5048576;28;20554;-72
2022/01/05 11:15:31;;;;;;;8.40;3.20;;;;;;;4.15;87.61;99555.53;5042122;28;20229;-73
2022/01/05 11:18:18;;;;;;;8.60;3.40;;;;;;;4.13;87.77;99556.31;5041725;28;20289;-72
2022/01/05 11:20:51;;;;;;;7.63;3.13;;;;;;;4.13;88.00;99557.19;5044406;28;20198;-72
2022/01/05 11:23:20;;;;;;;7.30;3.00;;;;;;;4.13;88.34;99553.78;5028255;28;20727;-73
2022/01/05 11:25:46;;;;;;;4.97;2.87;;;;;;;4.15;88.42;99550.47;5031061;28;20218;-73
2022/01/05 11:28:14;;;;;;;8.47;3.03;;;;;;;4.23;87.98;99553.19;5032185;28;20675;-73
2022/01/05 11:30:41;;;;;;;6.87;3.23;;;;;;;4.31;88.36;99542.41;5032007;28;20264;-73
2022/01/05 11:33:07;;;;;;;4.97;2.83;;;;;;;4.47;87.88;99546.97;5051866;28;20189;-73
2022/01/05 11:35:33;;;;;;;5.93;2.90;;;;;;;4.57;87.56;99541.31;5050508;28;20560;-73